Time;durP1;ratioP1;P1;durP2;ratioP2;P2;SDS_P1;SDS_P2;PMS_P1;PMS_P2;Temp;Humidity;BMP_temperature;BMP_pressure;BME280_temperature;BME280_humidity;BME280_pressure;Samples;Min_cycle;Max_cycle;Signal;HPM_P1;HPM_P2
2022/09/08 00:01:32;;;;;;;11.77;10.07;;;;;;;;;;2635175;52;21074;-84
2022/09/08 00:03:59;;;;;;;11.98;9.77;;;;;;;;;;2635012;52;21034;-84
2022/09/08 00:06:25;;;;;;;10.57;9.18;;;;;;;;;;2634723;52;21527;-84
2022/09/08 00:08:55;;;;;;;14.40;12.23;;;;;;;;;;2635150;52;21554;-84
2022/09/08 00:11:23;;;;;;;16.33;11.90;;;;;;;;;;2635099;52;21069;-84
2022/09/08 00:13:50;;;;;;;12.73;10.77;;;;;;;;;;2634831;52;21027;-84
2022/09/08 00:16:18;;;;;;;12.90;10.20;;;;;;;;;;2634667;52;21035;-84
2022/09/08 00:18:45;;;;;;;13.70;11.30;;;;;;;;;;2634857;52;21507;-84
2022/09/08 00:21:12;;;;;;;12.52;11.07;;;;;;;;;;2380434;56;21016;-84
2022/09/08 00:23:39;;;;;;;14.52;12.23;;;;;;;;;;2380466;56;21118;-84
2022/09/08 00:26:06;;;;;;;14.82;11.65;;;;;;;;;;2380208;56;21499;-84
2022/09/08 00:28:33;;;;;;;10.77;9.60;;;;;;;;;;2380510;56;21555;-84
2022/09/08 00:31:00;;;;;;;11.10;9.50;;;;;;;;;;2380606;56;21082;-84
2022/09/08 00:33:29;;;;;;;10.23;9.23;;;;;;;;;;2380702;56;21022;-84
2022/09/08 00:35:55;;;;;;;10.88;9.70;;;;;;;;;;2634535;52;21102;-84
2022/09/08 00:38:22;;;;;;;12.15;10.50;;;;;;;;;;2380486;56;21572;-84
2022/09/08 00:40:51;;;;;;;11.57;10.38;;;;;;;;;;2634720;52;21066;-85
2022/09/08 00:43:31;;;;;;;10.05;8.93;;;;;;;;;;2634999;52;21027;-84
2022/09/08 00:45:59;;;;;;;11.12;9.95;;;;;;;;;;2634799;52;21030;-84
2022/09/08 00:48:26;;;;;;;10.82;9.40;;;;;;;;;;2380735;56;21502;-84
2022/09/08 00:50:53;;;;;;;12.15;10.80;;;;;;;;;;2635142;52;21018;-84
2022/09/08 00:53:20;;;;;;;14.40;12.37;;;;;;;;;;2635124;52;21101;-84
2022/09/08 00:55:48;;;;;;;12.73;11.40;;;;;;;;;;2380080;56;21026;-84
2022/09/08 00:58:15;;;;;;;11.10;10.00;;;;;;;;;;2380789;56;21101;-84
2022/09/08 01:00:42;;;;;;;11.60;9.43;;;;;;;;;;2634908;52;21275;-84
2022/09/08 01:03:10;;;;;;;11.65;10.23;;;;;;;;;;2380555;56;21074;-84
2022/09/08 01:05:47;;;;;;;13.40;9.48;;;;;;;;;;2634622;52;21511;-84
2022/09/08 01:14:09;;;;;;;12.60;10.43;;;;;;;;;;2634625;52;21061;-84
2022/09/08 01:16:40;;;;;;;11.30;9.80;;;;;;;;;;2634875;52;20999;-84
2022/09/08 01:19:09;;;;;;;10.60;9.35;;;;;;;;;;2501343;52;21068;-83
2022/09/08 01:21:40;;;;;;;14.63;11.02;;;;;;;;;;2351500;57;21096;-84
2022/09/08 01:24:28;;;;;;;12.68;11.05;;;;;;;;;;2351316;57;21505;-82
2022/09/08 01:27:21;;;;;;;14.43;11.27;;;;;;;;;;2351305;57;21037;-84
2022/09/08 01:29:49;;;;;;;15.40;11.77;;;;;;;;;;2369731;56;21022;-83
2022/09/08 01:32:16;;;;;;;15.30;13.00;;;;;;;;;;2379191;54;21025;-85
2022/09/08 01:34:44;;;;;;;18.73;13.32;;;;;;;;;;2416255;52;21030;-84
2022/09/08 01:37:11;;;;;;;15.48;12.37;;;;;;;;;;2378894;56;21089;-83
2022/09/08 01:39:38;;;;;;;17.87;12.73;;;;;;;;;;2385145;52;21081;-84
2022/09/08 01:42:05;;;;;;;15.73;11.85;;;;;;;;;;2632882;52;21582;-85
2022/09/08 01:44:33;;;;;;;12.98;10.25;;;;;;;;;;2379364;56;21120;-83
2022/09/08 01:47:00;;;;;;;12.10;10.55;;;;;;;;;;2378970;56;21373;-84
2022/09/08 01:49:27;;;;;;;12.45;10.65;;;;;;;;;;2379205;56;21034;-84
2022/09/08 01:51:54;;;;;;;13.43;10.75;;;;;;;;;;2379488;56;21014;-84
2022/09/08 01:54:21;;;;;;;15.43;11.88;;;;;;;;;;2379319;56;21035;-83
2022/09/08 01:56:48;;;;;;;13.32;10.88;;;;;;;;;;2378603;56;21527;-84
2022/09/08 01:59:15;;;;;;;14.57;10.82;;;;;;;;;;2379283;56;21034;-84
2022/09/08 02:01:42;;;;;;;11.50;9.65;;;;;;;;;;2379203;56;21136;-84
2022/09/08 02:04:08;;;;;;;17.60;11.48;;;;;;;;;;2379102;56;21042;-85
2022/09/08 02:06:35;;;;;;;12.10;10.63;;;;;;;;;;2379120;56;21034;-83
2022/09/08 02:09:02;;;;;;;13.48;11.40;;;;;;;;;;2379016;56;21031;-84
2022/09/08 02:11:29;;;;;;;12.57;11.10;;;;;;;;;;2384993;52;21026;-84
2022/09/08 02:13:56;;;;;;;15.10;11.50;;;;;;;;;;2379344;55;21106;-84
2022/09/08 02:16:23;;;;;;;15.52;11.63;;;;;;;;;;2629857;52;21416;-84
2022/09/08 02:18:50;;;;;;;12.68;9.93;;;;;;;;;;2378909;56;21070;-83
2022/09/08 02:21:18;;;;;;;12.73;10.68;;;;;;;;;;2379097;56;21010;-83
2022/09/08 02:23:48;;;;;;;15.98;12.10;;;;;;;;;;2379038;56;21074;-85
2022/09/08 02:26:16;;;;;;;12.93;11.02;;;;;;;;;;2378653;56;21022;-84
2022/09/08 02:28:43;;;;;;;13.88;12.18;;;;;;;;;;2379273;56;21042;-84
2022/09/08 02:31:10;;;;;;;13.98;11.50;;;;;;;;;;2379047;56;21030;-85
2022/09/08 02:33:37;;;;;;;11.40;9.68;;;;;;;;;;2379119;54;21037;-84
2022/09/08 02:36:05;;;;;;;9.43;8.43;;;;;;;;;;2378680;56;21030;-85
2022/09/08 02:38:32;;;;;;;11.07;9.38;;;;;;;;;;2379000;56;21043;-83
2022/09/08 02:40:59;;;;;;;10.85;9.68;;;;;;;;;;2379125;55;21042;-84
2022/09/08 02:43:26;;;;;;;11.90;10.00;;;;;;;;;;2632834;52;21098;-84
2022/09/08 02:45:53;;;;;;;12.37;10.25;;;;;;;;;;2384527;52;21078;-84
2022/09/08 02:48:20;;;;;;;10.95;9.00;;;;;;;;;;2379044;56;21393;-84
2022/09/08 02:50:47;;;;;;;10.95;9.75;;;;;;;;;;2385093;52;21090;-84
2022/09/08 02:53:14;;;;;;;10.65;9.00;;;;;;;;;;2633021;52;21034;-84
2022/09/08 02:55:42;;;;;;;14.38;11.18;;;;;;;;;;2378637;56;21157;-84
2022/09/08 02:58:10;;;;;;;12.27;9.63;;;;;;;;;;2632956;52;21038;-84
2022/09/08 03:00:38;;;;;;;15.20;10.57;;;;;;;;;;2379399;56;21022;-83
2022/09/08 03:03:06;;;;;;;13.45;10.40;;;;;;;;;;2378993;55;21022;-84
2022/09/08 03:05:34;;;;;;;12.75;8.82;;;;;;;;;;2378787;56;21513;-84
2022/09/08 03:08:03;;;;;;;11.00;9.15;;;;;;;;;;2378896;56;21031;-84
2022/09/08 03:10:30;;;;;;;14.38;9.60;;;;;;;;;;2379024;56;21034;-84
2022/09/08 03:12:57;;;;;;;13.25;10.45;;;;;;;;;;2632550;52;21106;-84
2022/09/08 03:15:26;;;;;;;11.95;8.85;;;;;;;;;;2378780;56;21098;-83
2022/09/08 03:17:53;;;;;;;10.77;8.75;;;;;;;;;;2527379;52;21105;-83
2022/09/08 03:20:20;;;;;;;13.00;8.60;;;;;;;;;;2378746;56;21090;-83
2022/09/08 03:22:47;;;;;;;10.43;7.22;;;;;;;;;;2378796;56;21017;-83
2022/09/08 03:25:15;;;;;;;12.20;7.60;;;;;;;;;;2378493;56;21026;-82
2022/09/08 03:27:42;;;;;;;12.10;8.25;;;;;;;;;;2378758;56;21038;-83
2022/09/08 03:30:10;;;;;;;13.02;8.20;;;;;;;;;;2378729;56;21034;-83
2022/09/08 03:32:38;;;;;;;11.45;7.87;;;;;;;;;;2381276;52;21594;-83
2022/09/08 03:35:07;;;;;;;8.80;7.45;;;;;;;;;;2378781;56;21035;-82
2022/09/08 03:37:34;;;;;;;9.57;8.05;;;;;;;;;;2378737;56;21412;-84
2022/09/08 03:40:04;;;;;;;10.35;7.65;;;;;;;;;;2378948;55;21035;-83
2022/09/08 03:42:33;;;;;;;8.18;6.72;;;;;;;;;;2378994;56;21030;-84
2022/09/08 03:45:00;;;;;;;10.93;7.80;;;;;;;;;;2379684;52;21034;-83
2022/09/08 03:47:27;;;;;;;9.18;6.80;;;;;;;;;;2632511;52;21010;-83
2022/09/08 03:49:54;;;;;;;8.25;6.65;;;;;;;;;;2632679;52;21160;-84
2022/09/08 03:52:21;;;;;;;16.25;7.10;;;;;;;;;;2378912;56;21022;-83
2022/09/08 03:54:48;;;;;;;9.70;6.97;;;;;;;;;;2378683;56;21062;-83
2022/09/08 03:57:16;;;;;;;9.27;6.82;;;;;;;;;;2378490;56;21062;-83
2022/09/08 03:59:43;;;;;;;7.82;6.87;;;;;;;;;;2632783;52;21027;-83
2022/09/08 04:02:11;;;;;;;7.85;6.45;;;;;;;;;;2378879;54;21085;-85
2022/09/08 04:04:38;;;;;;;8.73;5.95;;;;;;;;;;2378617;56;21026;-83
2022/09/08 04:07:05;;;;;;;11.93;6.78;;;;;;;;;;2632078;52;21598;-84
2022/09/08 04:09:32;;;;;;;7.70;6.45;;;;;;;;;;2560748;52;21599;-83
2022/09/08 04:11:59;;;;;;;8.93;6.60;;;;;;;;;;2378704;56;21550;-83
2022/09/08 04:14:26;;;;;;;8.73;7.05;;;;;;;;;;2378586;56;21031;-84
2022/09/08 04:16:53;;;;;;;8.25;6.43;;;;;;;;;;2378370;56;21030;-84
2022/09/08 04:19:19;;;;;;;8.93;6.55;;;;;;;;;;2378875;56;21084;-84
2022/09/08 04:21:47;;;;;;;7.50;6.30;;;;;;;;;;2378883;56;21054;-83
2022/09/08 04:24:14;;;;;;;9.23;6.97;;;;;;;;;;2378878;56;21038;-84
2022/09/08 04:26:41;;;;;;;9.90;6.43;;;;;;;;;;2384268;52;21034;-83
2022/09/08 04:29:08;;;;;;;8.25;6.15;;;;;;;;;;2378824;56;21035;-83
2022/09/08 04:31:35;;;;;;;8.50;6.05;;;;;;;;;;2379152;56;21027;-84
2022/09/08 04:34:02;;;;;;;8.02;6.50;;;;;;;;;;2378963;56;21094;-83
2022/09/08 04:36:30;;;;;;;9.98;7.10;;;;;;;;;;2378625;56;21034;-83
2022/09/08 04:38:58;;;;;;;9.75;7.07;;;;;;;;;;2633103;52;21428;-83
2022/09/08 04:41:25;;;;;;;7.20;5.53;;;;;;;;;;2378984;56;21102;-85
2022/09/08 04:43:53;;;;;;;9.82;6.78;;;;;;;;;;2378976;56;21086;-84
2022/09/08 04:46:20;;;;;;;11.10;6.82;;;;;;;;;;2378643;56;21025;-84
2022/09/08 04:48:47;;;;;;;6.57;5.85;;;;;;;;;;2604903;52;21832;-84
2022/09/08 04:51:15;;;;;;;9.95;6.15;;;;;;;;;;2379227;56;21018;-83
2022/09/08 04:53:43;;;;;;;7.05;5.62;;;;;;;;;;2379065;56;21043;-83
2022/09/08 04:56:10;;;;;;;7.22;5.85;;;;;;;;;;2378560;56;21093;-84
2022/09/08 04:58:39;;;;;;;8.77;5.85;;;;;;;;;;2633024;52;21023;-84
2022/09/08 05:01:07;;;;;;;7.93;5.87;;;;;;;;;;2379009;56;21099;-84
2022/09/08 05:03:34;;;;;;;9.13;5.95;;;;;;;;;;2379036;56;21149;-84
2022/09/08 05:06:04;;;;;;;7.35;5.62;;;;;;;;;;2378624;56;21583;-83
2022/09/08 05:08:31;;;;;;;6.47;4.97;;;;;;;;;;2378997;56;21101;-84
2022/09/08 05:10:58;;;;;;;9.63;6.30;;;;;;;;;;2633020;52;21011;-84
2022/09/08 05:13:25;;;;;;;11.25;5.97;;;;;;;;;;2632820;52;21534;-84
2022/09/08 05:15:52;;;;;;;5.70;4.70;;;;;;;;;;2378590;56;21094;-84
2022/09/08 05:18:18;;;;;;;9.25;5.90;;;;;;;;;;2379034;56;21027;-83
2022/09/08 05:20:53;;;;;;;6.53;5.20;;;;;;;;;;2632824;52;21039;-85
2022/09/08 05:23:20;;;;;;;6.25;5.45;;;;;;;;;;2379242;56;21038;-83
2022/09/08 05:25:54;;;;;;;8.05;4.80;;;;;;;;;;2378813;56;21106;-84
2022/09/08 05:28:21;;;;;;;6.30;5.25;;;;;;;;;;2379215;56;21031;-84
2022/09/08 05:30:48;;;;;;;9.18;5.43;;;;;;;;;;2378852;56;21030;-83
2022/09/08 05:33:15;;;;;;;8.95;5.68;;;;;;;;;;2379065;56;21058;-84
2022/09/08 05:35:42;;;;;;;9.35;5.72;;;;;;;;;;2378608;56;21519;-84
2022/09/08 05:38:09;;;;;;;7.70;5.75;;;;;;;;;;2379176;54;21639;-83
2022/09/08 05:40:36;;;;;;;7.95;5.35;;;;;;;;;;2379073;56;21030;-84
2022/09/08 05:43:03;;;;;;;6.20;4.97;;;;;;;;;;2632912;52;21022;-83
2022/09/08 05:45:30;;;;;;;5.57;4.60;;;;;;;;;;2378622;56;21062;-83
2022/09/08 05:47:57;;;;;;;8.85;4.87;;;;;;;;;;2379062;56;21026;-84
2022/09/08 05:50:24;;;;;;;6.57;5.32;;;;;;;;;;2378808;56;21081;-84
2022/09/08 05:52:51;;;;;;;10.95;5.37;;;;;;;;;;2379144;56;21081;-83
2022/09/08 05:55:18;;;;;;;12.05;5.22;;;;;;;;;;2632498;52;21559;-84
2022/09/08 05:57:47;;;;;;;8.65;5.25;;;;;;;;;;2379148;54;21562;-84
2022/09/08 06:00:14;;;;;;;7.65;4.70;;;;;;;;;;2379021;56;21113;-85
2022/09/08 06:02:41;;;;;;;8.82;5.35;;;;;;;;;;2379080;56;21027;-83
2022/09/08 06:05:10;;;;;;;7.75;4.93;;;;;;;;;;2384474;52;21130;-84
2022/09/08 06:07:37;;;;;;;5.62;4.30;;;;;;;;;;2378827;56;21509;-83
2022/09/08 06:10:05;;;;;;;8.82;5.30;;;;;;;;;;2378786;56;21034;-82
2022/09/08 06:12:32;;;;;;;6.78;4.50;;;;;;;;;;2379097;56;21068;-84
2022/09/08 06:14:59;;;;;;;8.57;4.62;;;;;;;;;;2378879;56;21102;-85
2022/09/08 06:17:25;;;;;;;8.38;5.07;;;;;;;;;;2632425;52;21037;-84
2022/09/08 06:19:52;;;;;;;7.70;4.70;;;;;;;;;;2378848;56;21109;-84
2022/09/08 06:22:19;;;;;;;5.65;4.28;;;;;;;;;;2379018;56;21149;-84
2022/09/08 06:24:48;;;;;;;9.13;4.72;;;;;;;;;;2632648;52;21028;-81
2022/09/08 06:27:21;;;;;;;6.82;4.55;;;;;;;;;;2378720;56;21106;-84
2022/09/08 06:29:55;;;;;;;7.45;4.53;;;;;;;;;;2378752;56;21030;-84
2022/09/08 06:32:26;;;;;;;6.32;4.18;;;;;;;;;;2633043;52;21089;-84
2022/09/08 06:34:55;;;;;;;6.68;4.57;;;;;;;;;;2378722;56;21038;-83
2022/09/08 06:37:27;;;;;;;9.82;4.62;;;;;;;;;;2632597;52;21014;-84
2022/09/08 06:39:58;;;;;;;5.20;3.80;;;;;;;;;;2378933;54;21097;-84
2022/09/08 06:42:31;;;;;;;8.35;4.18;;;;;;;;;;2378877;56;21614;-84
2022/09/08 06:45:00;;;;;;;6.35;3.85;;;;;;;;;;2379082;56;21158;-84
2022/09/08 06:47:34;;;;;;;6.90;3.62;;;;;;;;;;2378611;55;21031;-85
2022/09/08 06:50:01;;;;;;;7.93;4.12;;;;;;;;;;2378885;56;21524;-83
2022/09/08 06:52:32;;;;;;;5.90;4.05;;;;;;;;;;2378944;54;21018;-83
2022/09/08 06:55:02;;;;;;;9.35;4.10;;;;;;;;;;2378919;56;21046;-83
2022/09/08 06:57:36;;;;;;;6.07;4.10;;;;;;;;;;2424677;52;21034;-83
2022/09/08 07:00:09;;;;;;;6.85;4.40;;;;;;;;;;2632651;52;21083;-83
2022/09/08 07:02:48;;;;;;;5.40;3.80;;;;;;;;;;2379376;56;21081;-82
2022/09/08 07:05:23;;;;;;;5.62;3.35;;;;;;;;;;2378862;56;21030;-83
2022/09/08 07:07:52;;;;;;;5.85;3.62;;;;;;;;;;2378812;56;21094;-85
2022/09/08 07:10:21;;;;;;;7.72;3.42;;;;;;;;;;2378941;54;21034;-84
2022/09/08 07:12:51;;;;;;;8.25;4.22;;;;;;;;;;2379015;54;21030;-84
2022/09/08 07:15:25;;;;;;;6.80;3.87;;;;;;;;;;2378608;56;21173;-82
2022/09/08 07:17:54;;;;;;;4.50;3.90;;;;;;;;;;2378832;56;21027;-84
2022/09/08 07:20:22;;;;;;;9.15;3.60;;;;;;;;;;2359824;52;21093;-84
2022/09/08 07:22:51;;;;;;;11.00;3.80;;;;;;;;;;2354921;57;21100;-84
2022/09/08 07:25:25;;;;;;;7.10;3.53;;;;;;;;;;2603098;53;21081;-84
2022/09/08 07:27:55;;;;;;;5.10;3.67;;;;;;;;;;2603526;53;21514;-84
2022/09/08 07:30:22;;;;;;;9.73;3.70;;;;;;;;;;2603607;53;21057;-84
2022/09/08 07:32:52;;;;;;;6.18;3.60;;;;;;;;;;2603301;53;21101;-84
2022/09/08 07:35:22;;;;;;;7.03;4.07;;;;;;;;;;2354851;57;21558;-83
2022/09/08 07:37:51;;;;;;;5.55;3.30;;;;;;;;;;2354851;57;21049;-84
2022/09/08 07:40:19;;;;;;;5.75;3.65;;;;;;;;;;2355042;56;21109;-84
2022/09/08 07:42:48;;;;;;;8.15;3.78;;;;;;;;;;2603262;53;21022;-84
2022/09/08 07:45:15;;;;;;;4.12;3.17;;;;;;;;;;2603250;53;21113;-84
2022/09/08 07:48:02;;;;;;;6.53;3.55;;;;;;;;;;2355042;57;21085;-84
2022/09/08 07:53:23;;;;;;;6.03;3.65;;;;;;;;;;2603104;53;21002;-85
2022/09/08 07:55:50;;;;;;;4.35;3.53;;;;;;;;;;2355030;57;21073;-84
2022/09/08 07:58:19;;;;;;;6.82;3.15;;;;;;;;;;2603296;53;21510;-84
2022/09/08 08:00:52;;;;;;;6.05;3.45;;;;;;;;;;2355043;57;21086;-84
2022/09/08 08:03:33;;;;;;;7.85;4.03;;;;;;;;;;2603546;53;21589;-84
2022/09/08 08:06:03;;;;;;;7.32;3.20;;;;;;;;;;2603035;53;21085;-84
2022/09/08 08:08:36;;;;;;;6.05;3.12;;;;;;;;;;2602958;52;21041;-84
2022/09/08 08:11:08;;;;;;;5.25;3.08;;;;;;;;;;2354865;57;21068;-84
2022/09/08 08:13:45;;;;;;;8.68;3.60;;;;;;;;;;2603444;53;21096;-84
2022/09/08 08:16:14;;;;;;;12.73;4.18;;;;;;;;;;2602934;53;21022;-84
2022/09/08 08:18:45;;;;;;;6.30;3.47;;;;;;;;;;2603614;52;21098;-84
2022/09/08 08:21:14;;;;;;;4.65;3.00;;;;;;;;;;2354835;57;21030;-84
2022/09/08 08:24:04;;;;;;;5.53;3.15;;;;;;;;;;2603615;53;21034;-84
2022/09/08 08:26:35;;;;;;;8.40;3.50;;;;;;;;;;2346469;57;21026;-85
2022/09/08 08:29:20;;;;;;;10.27;3.17;;;;;;;;;;2603655;52;21593;-84
2022/09/08 08:31:50;;;;;;;4.40;2.97;;;;;;;;;;2355032;57;21029;-84
2022/09/08 08:34:18;;;;;;;5.70;2.87;;;;;;;;;;2354955;57;21049;-84
2022/09/08 08:36:46;;;;;;;5.10;2.45;;;;;;;;;;2602976;53;21049;-84
2022/09/08 08:39:16;;;;;;;3.10;2.65;;;;;;;;;;2603378;52;21029;-84
2022/09/08 08:41:50;;;;;;;5.07;3.15;;;;;;;;;;2354976;57;21042;-84
2022/09/08 08:44:29;;;;;;;9.27;3.78;;;;;;;;;;2603687;53;21116;-84
2022/09/08 08:47:16;;;;;;;4.75;2.85;;;;;;;;;;2354733;57;21091;-84
2022/09/08 08:50:01;;;;;;;5.62;3.05;;;;;;;;;;2603267;52;21026;-84
2022/09/08 08:52:37;;;;;;;6.60;2.92;;;;;;;;;;2354856;57;21490;-85
2022/09/08 08:55:17;;;;;;;5.72;3.00;;;;;;;;;;2354972;57;21490;-84
2022/09/08 08:58:02;;;;;;;6.80;2.90;;;;;;;;;;2354825;57;21045;-84
2022/09/08 09:00:35;;;;;;;7.22;2.80;;;;;;;;;;2354996;57;21103;-84
2022/09/08 09:03:10;;;;;;;4.72;3.22;;;;;;;;;;2603593;53;21169;-84
2022/09/08 09:05:44;;;;;;;7.50;3.00;;;;;;;;;;2603520;53;21131;-84
2022/09/08 09:08:19;;;;;;;5.60;2.62;;;;;;;;;;2603715;53;21081;-84
2022/09/08 09:10:53;;;;;;;5.80;3.17;;;;;;;;;;2603949;53;21017;-84
2022/09/08 09:13:45;;;;;;;5.07;2.85;;;;;;;;;;2355187;57;21530;-84
2022/09/08 09:16:23;;;;;;;9.02;3.10;;;;;;;;;;2352183;57;21073;-84
2022/09/08 09:19:09;;;;;;;4.90;2.75;;;;;;;;;;2355117;57;21049;-84
2022/09/08 09:21:49;;;;;;;6.20;3.03;;;;;;;;;;2355085;57;21509;-84
2022/09/08 09:24:19;;;;;;;4.00;2.58;;;;;;;;;;2355066;57;21045;-84
2022/09/08 09:26:49;;;;;;;6.10;2.72;;;;;;;;;;2603275;53;21518;-84
2022/09/08 09:29:19;;;;;;;5.80;2.72;;;;;;;;;;2355119;57;21033;-84
2022/09/08 09:32:05;;;;;;;11.27;2.80;;;;;;;;;;2603743;53;21038;-84
2022/09/08 09:34:49;;;;;;;3.78;2.70;;;;;;;;;;2355124;57;21156;-84
2022/09/08 09:37:39;;;;;;;5.68;2.62;;;;;;;;;;2354830;57;21089;-84
2022/09/08 09:40:25;;;;;;;6.45;2.80;;;;;;;;;;2603519;52;21118;-84
2022/09/08 09:43:00;;;;;;;7.60;3.35;;;;;;;;;;2355398;57;21046;-84
2022/09/08 09:45:38;;;;;;;4.72;2.95;;;;;;;;;;2354654;57;21105;-84
2022/09/08 09:48:36;;;;;;;6.18;2.85;;;;;;;;;;2603442;53;21074;-84
2022/09/08 09:51:08;;;;;;;3.53;2.72;;;;;;;;;;2603505;53;21141;-84
2022/09/08 09:54:01;;;;;;;6.37;2.83;;;;;;;;;;2603586;53;21037;-84
2022/09/08 09:56:46;;;;;;;4.75;2.58;;;;;;;;;;2355142;57;21104;-84
2022/09/08 09:59:34;;;;;;;4.47;2.78;;;;;;;;;;2355313;57;21050;-84
2022/09/08 10:02:10;;;;;;;5.60;2.97;;;;;;;;;;2603533;53;21041;-84
2022/09/08 10:04:55;;;;;;;6.00;3.15;;;;;;;;;;2603697;53;21038;-84
2022/09/08 10:07:39;;;;;;;7.70;2.78;;;;;;;;;;2603143;53;21620;-84
2022/09/08 10:10:35;;;;;;;5.20;3.33;;;;;;;;;;2603166;52;21042;-84
2022/09/08 10:13:15;;;;;;;4.82;2.80;;;;;;;;;;2586362;53;21034;-84
2022/09/08 10:16:00;;;;;;;5.25;2.95;;;;;;;;;;2602899;53;21037;-84
2022/09/08 10:18:53;;;;;;;4.35;3.17;;;;;;;;;;2354940;57;21081;-84
2022/09/08 10:21:48;;;;;;;7.50;3.53;;;;;;;;;;2355030;57;21045;-84
2022/09/08 10:24:25;;;;;;;4.70;3.15;;;;;;;;;;2295679;57;21114;-84
2022/09/08 10:27:14;;;;;;;10.45;3.33;;;;;;;;;;2354795;57;21029;-84
2022/09/08 10:30:03;;;;;;;7.12;3.30;;;;;;;;;;2603463;52;21033;-84
2022/09/08 10:32:50;;;;;;;5.30;3.42;;;;;;;;;;2603455;53;21093;-84
2022/09/08 10:35:35;;;;;;;4.72;3.30;;;;;;;;;;2354887;57;21037;-84
2022/09/08 10:38:30;;;;;;;5.05;3.28;;;;;;;;;;2603429;53;21030;-84
2022/09/08 10:41:10;;;;;;;5.35;3.33;;;;;;;;;;2586045;53;21029;-85
2022/09/08 10:43:53;;;;;;;6.03;3.87;;;;;;;;;;2355004;57;21037;-84
2022/09/08 10:46:45;;;;;;;6.07;3.40;;;;;;;;;;2603401;53;21156;-84
2022/09/08 10:49:25;;;;;;;5.37;3.58;;;;;;;;;;2351934;57;21026;-85
2022/09/08 10:52:00;;;;;;;5.78;4.00;;;;;;;;;;2603788;53;21525;-84
2022/09/08 10:54:37;;;;;;;7.65;4.20;;;;;;;;;;2355460;57;21045;-84
2022/09/08 10:57:18;;;;;;;6.10;4.12;;;;;;;;;;2355196;57;21038;-85
2022/09/08 10:59:53;;;;;;;5.57;3.62;;;;;;;;;;2603836;52;21529;-85
2022/09/08 11:02:40;;;;;;;7.45;4.30;;;;;;;;;;2603444;53;21515;-84
2022/09/08 11:05:26;;;;;;;8.55;4.93;;;;;;;;;;2354969;57;21049;-84
2022/09/08 11:08:06;;;;;;;9.35;5.37;;;;;;;;;;2343802;57;21042;-84
2022/09/08 11:10:41;;;;;;;7.40;4.70;;;;;;;;;;2604489;52;21089;-84
2022/09/08 11:13:18;;;;;;;8.77;4.90;;;;;;;;;;2355602;57;21495;-84
2022/09/08 11:16:08;;;;;;;9.80;4.70;;;;;;;;;;2354578;57;21034;-84
2022/09/08 11:18:45;;;;;;;7.43;4.93;;;;;;;;;;2354922;57;21061;-84
2022/09/08 11:21:20;;;;;;;7.75;4.72;;;;;;;;;;2603651;53;21021;-84
2022/09/08 11:23:55;;;;;;;8.57;5.03;;;;;;;;;;2603411;53;21621;-84
2022/09/08 11:26:29;;;;;;;11.32;5.50;;;;;;;;;;2603339;53;21116;-83
2022/09/08 11:29:02;;;;;;;7.35;5.22;;;;;;;;;;2603250;52;21042;-84
2022/09/08 11:31:33;;;;;;;8.68;5.53;;;;;;;;;;2604022;53;21069;-84
2022/09/08 11:34:16;;;;;;;9.38;5.68;;;;;;;;;;2354856;57;21073;-83
2022/09/08 11:36:52;;;;;;;9.03;5.73;;;;;;;;;;2354812;57;21081;-84
2022/09/08 11:39:29;;;;;;;8.55;5.65;;;;;;;;;;2355037;57;21398;-84
2022/09/08 11:42:07;;;;;;;9.63;5.65;;;;;;;;;;2603721;53;21029;-84
2022/09/08 11:44:41;;;;;;;11.02;5.62;;;;;;;;;;2355018;57;21025;-84
2022/09/08 11:47:28;;;;;;;7.40;5.35;;;;;;;;;;2354629;57;21089;-84
2022/09/08 11:50:03;;;;;;;10.68;5.35;;;;;;;;;;2589255;52;21022;-84
2022/09/08 11:52:38;;;;;;;12.57;5.55;;;;;;;;;;2355057;57;21164;-84
2022/09/08 11:55:16;;;;;;;8.75;5.97;;;;;;;;;;2355078;57;21044;-85
2022/09/08 11:57:50;;;;;;;7.65;5.10;;;;;;;;;;2355156;57;21042;-85
2022/09/08 12:00:16;;;;;;;;;;;;;;;;;;2607187;52;21034;-85
2022/09/08 12:03:03;;;;;;;9.27;5.93;;;;;;;;;;2603214;53;20058;-85
2022/09/08 12:05:33;;;;;;;9.48;6.05;;;;;;;;;;2354371;57;21061;-84
2022/09/08 12:08:11;;;;;;;8.90;5.95;;;;;;;;;;2602925;53;21541;-85
2022/09/08 12:10:43;;;;;;;9.07;5.95;;;;;;;;;;2602975;52;21541;-85
2022/09/08 12:13:18;;;;;;;10.48;6.43;;;;;;;;;;2603212;53;21074;-85
2022/09/08 12:16:04;;;;;;;14.55;6.97;;;;;;;;;;2602309;53;21030;-85
2022/09/08 12:18:57;;;;;;;9.23;6.25;;;;;;;;;;2602809;52;21029;-85
2022/09/08 12:21:29;;;;;;;11.77;6.68;;;;;;;;;;2599276;53;21022;-85
2022/09/08 12:24:01;;;;;;;8.82;6.72;;;;;;;;;;2355077;57;21084;-86
2022/09/08 12:26:36;;;;;;;7.65;6.07;;;;;;;;;;2354763;57;21089;-86
2022/09/08 12:29:17;;;;;;;11.80;7.18;;;;;;;;;;2355084;57;21049;-86
2022/09/08 12:31:52;;;;;;;10.98;7.22;;;;;;;;;;2603153;53;21045;-86
2022/09/08 12:34:28;;;;;;;10.15;7.32;;;;;;;;;;2355183;57;21100;-86
2022/09/08 12:37:01;;;;;;;8.50;6.78;;;;;;;;;;2354572;57;21046;-85
2022/09/08 12:39:38;;;;;;;10.38;6.93;;;;;;;;;;2355012;57;21518;-85
2022/09/08 12:42:17;;;;;;;10.07;6.95;;;;;;;;;;2355210;57;21518;-86
2022/09/08 12:44:51;;;;;;;11.55;7.45;;;;;;;;;;2603047;53;21045;-85
2022/09/08 12:47:24;;;;;;;11.73;7.80;;;;;;;;;;2602872;53;21100;-85
2022/09/08 12:50:03;;;;;;;11.32;8.25;;;;;;;;;;2603411;52;21042;-84
2022/09/08 12:52:38;;;;;;;11.77;8.77;;;;;;;;;;2355209;57;21084;-84
2022/09/08 12:55:12;;;;;;;10.55;8.35;;;;;;;;;;2603673;53;21101;-84
2022/09/08 12:57:54;;;;;;;12.52;9.65;;;;;;;;;;2604106;53;21033;-84
2022/09/08 13:00:26;;;;;;;9.93;8.90;;;;;;;;;;2355686;57;21034;-84
2022/09/08 13:03:05;;;;;;;10.55;9.27;;;;;;;;;;2604824;53;21065;-84
2022/09/08 13:05:48;;;;;;;13.80;10.70;;;;;;;;;;2604000;53;21065;-84
2022/09/08 13:08:21;;;;;;;13.32;11.60;;;;;;;;;;2355596;57;21013;-84
2022/09/08 13:10:50;;;;;;;13.52;11.45;;;;;;;;;;2355467;57;21101;-84
2022/09/08 13:13:32;;;;;;;15.25;11.07;;;;;;;;;;2355442;57;21101;-84
2022/09/08 13:16:04;;;;;;;12.50;10.90;;;;;;;;;;2603249;53;21048;-85
2022/09/08 13:18:48;;;;;;;12.25;11.05;;;;;;;;;;2604043;52;21034;-85
2022/09/08 13:21:23;;;;;;;12.35;11.00;;;;;;;;;;2354891;57;21105;-84
2022/09/08 13:23:53;;;;;;;12.30;11.00;;;;;;;;;;2603555;53;21041;-84
2022/09/08 13:26:28;;;;;;;17.02;11.50;;;;;;;;;;2603440;53;21024;-85
2022/09/08 13:29:00;;;;;;;12.43;10.77;;;;;;;;;;2603478;52;21041;-84
2022/09/08 13:31:34;;;;;;;13.15;11.15;;;;;;;;;;2355017;57;21085;-84
2022/09/08 13:34:10;;;;;;;12.55;11.25;;;;;;;;;;2355257;57;21553;-85
2022/09/08 13:36:51;;;;;;;13.35;11.95;;;;;;;;;;2354879;57;21086;-85
2022/09/08 13:39:23;;;;;;;15.70;13.38;;;;;;;;;;2355191;57;21096;-84
2022/09/08 13:41:57;;;;;;;14.15;12.60;;;;;;;;;;2355289;57;21605;-85
2022/09/08 13:44:44;;;;;;;15.02;13.43;;;;;;;;;;2355093;57;21081;-85
2022/09/08 13:47:34;;;;;;;15.38;13.77;;;;;;;;;;2354775;57;21577;-84
2022/09/08 13:50:09;;;;;;;14.52;12.88;;;;;;;;;;2602665;52;21082;-85
2022/09/08 13:52:49;;;;;;;15.10;13.35;;;;;;;;;;2603179;53;21060;-84
2022/09/08 13:55:26;;;;;;;15.98;14.32;;;;;;;;;;2354838;57;21069;-84
2022/09/08 13:58:01;;;;;;;17.25;15.07;;;;;;;;;;2355249;57;21053;-85
2022/09/08 14:00:28;;;;;;;16.27;14.48;;;;;;;;;;2603233;52;21038;-84
2022/09/08 14:03:00;;;;;;;16.25;14.65;;;;;;;;;;2355180;57;21125;-85
2022/09/08 14:05:33;;;;;;;17.52;15.73;;;;;;;;;;2354971;57;21033;-85
2022/09/08 14:08:04;;;;;;;19.30;17.30;;;;;;;;;;2603524;53;21032;-85
2022/09/08 14:10:46;;;;;;;17.87;15.95;;;;;;;;;;2355335;57;21022;-84
2022/09/08 14:13:22;;;;;;;20.60;18.60;;;;;;;;;;2603271;53;21542;-84
2022/09/08 14:15:51;;;;;;;19.73;17.80;;;;;;;;;;2354604;57;21078;-84
2022/09/08 14:18:30;;;;;;;21.60;19.50;;;;;;;;;;2603280;53;21085;-85
2022/09/08 14:20:59;;;;;;;22.23;19.92;;;;;;;;;;2603139;53;21838;-85
2022/09/08 14:23:34;;;;;;;21.20;18.90;;;;;;;;;;2602926;53;21030;-85
2022/09/08 14:26:24;;;;;;;20.48;18.35;;;;;;;;;;2354613;57;21081;-85
2022/09/08 14:28:54;;;;;;;19.12;17.23;;;;;;;;;;2603196;52;21164;-85
2022/09/08 14:31:26;;;;;;;20.33;18.30;;;;;;;;;;2603207;53;21558;-85
2022/09/08 14:33:55;;;;;;;20.95;17.40;;;;;;;;;;2355556;57;21562;-84
2022/09/08 14:36:39;;;;;;;19.83;17.90;;;;;;;;;;2354972;57;21033;-84
2022/09/08 14:39:20;;;;;;;16.80;15.00;;;;;;;;;;2355288;57;21494;-85
2022/09/08 14:41:50;;;;;;;18.62;16.73;;;;;;;;;;2603622;53;21093;-85
2022/09/08 14:44:24;;;;;;;20.02;17.98;;;;;;;;;;2604478;53;21085;-84
2022/09/08 14:46:52;;;;;;;21.70;17.67;;;;;;;;;;2355283;57;21029;-85
2022/09/08 14:49:42;;;;;;;21.70;19.45;;;;;;;;;;2355535;57;21042;-85
2022/09/08 14:52:15;;;;;;;18.42;16.15;;;;;;;;;;2344465;57;21501;-84
2022/09/08 14:54:50;;;;;;;21.15;18.48;;;;;;;;;;2603814;53;21037;-84
2022/09/08 14:57:21;;;;;;;21.45;19.35;;;;;;;;;;2603308;53;21572;-84
2022/09/08 15:00:11;;;;;;;20.23;18.30;;;;;;;;;;2355730;57;21110;-85
2022/09/08 15:02:39;;;;;;;19.85;17.87;;;;;;;;;;2604034;53;21081;-85
2022/09/08 15:05:15;;;;;;;20.52;18.20;;;;;;;;;;2604125;53;21041;-85
2022/09/08 15:07:43;;;;;;;22.77;20.20;;;;;;;;;;2356423;57;21387;-85
2022/09/08 15:10:16;;;;;;;21.40;19.37;;;;;;;;;;2604419;52;21041;-84
2022/09/08 15:12:54;;;;;;;34.85;29.45;;;;;;;;;;2356585;57;21033;-84
2022/09/08 15:15:29;;;;;;;21.62;19.52;;;;;;;;;;2356217;57;21049;-83